createdAt,value
2019-04-29T00:00:49.074Z,77.33
2019-04-29T00:01:26.054Z,77.33
2019-04-29T00:02:02.197Z,77.33
2019-04-29T00:02:38.378Z,76.81
2019-04-29T00:03:14.539Z,77.88
2019-04-29T00:03:50.783Z,77.35
2019-04-29T00:04:27.014Z,76.67
2019-04-29T00:05:04.706Z,76.77
2019-04-29T00:05:40.890Z,76.77
2019-04-29T00:06:17.052Z,77.20
2019-04-29T00:06:53.257Z,76.37
2019-04-29T00:07:29.401Z,76.79
2019-04-29T00:08:05.479Z,76.93
2019-04-29T00:08:41.720Z,76.93
2019-04-29T00:09:19.226Z,77.04
2019-04-29T00:09:55.319Z,77.04
2019-04-29T00:10:31.501Z,76.98
2019-04-29T00:11:07.652Z,76.98
2019-04-29T00:11:43.800Z,76.49
2019-04-29T00:12:20.197Z,76.14
2019-04-29T00:12:56.365Z,76.42
2019-04-29T00:13:32.525Z,76.42
2019-04-29T00:14:09.903Z,76.37
2019-04-29T00:14:54.243Z,76.39
2019-04-29T00:15:52.142Z,76.68
2019-04-29T00:16:40.141Z,76.07
2019-04-29T00:17:21.664Z,76.07
2019-04-29T00:18:01.132Z,76.50
2019-04-29T00:18:56.103Z,76.50
2019-04-29T00:19:40.123Z,76.22
2019-04-29T00:20:37.823Z,76.40
2019-04-29T00:21:13.906Z,76.74
2019-04-29T00:21:50.265Z,76.74
2019-04-29T00:22:26.456Z,76.53
2019-04-29T00:23:02.598Z,76.67
2019-04-29T00:23:38.634Z,77.06
2019-04-29T00:24:14.753Z,76.07
2019-04-29T00:24:50.884Z,76.86
2019-04-29T00:25:27.029Z,76.67
2019-04-29T00:26:03.285Z,76.91
2019-04-29T00:26:40.112Z,76.91
2019-04-29T00:27:16.468Z,77.22
2019-04-29T00:27:52.523Z,76.40
2019-04-29T00:28:28.640Z,77.23
2019-04-29T00:29:04.927Z,77.23
2019-04-29T00:29:43.804Z,76.93
2019-04-29T00:30:22.253Z,76.95
2019-04-29T00:30:58.387Z,77.46
2019-04-29T00:31:34.493Z,76.87
2019-04-29T00:32:11.614Z,77.06
2019-04-29T00:32:47.756Z,76.89
2019-04-29T00:33:23.999Z,76.83
2019-04-29T00:34:00.091Z,76.83
2019-04-29T00:34:36.155Z,76.48
2019-04-29T00:35:12.237Z,76.55
2019-04-29T00:35:48.456Z,76.70
2019-04-29T00:36:26.465Z,76.07
2019-04-29T00:37:21.588Z,75.81
2019-04-29T00:38:31.393Z,75.81
2019-04-29T00:39:45.159Z,76.41
2019-04-29T00:40:40.148Z,76.41
2019-04-29T00:41:40.980Z,75.92
2019-04-29T00:42:35.935Z,75.92
2019-04-29T00:43:36.774Z,75.26
2019-04-29T00:44:14.439Z,74.99
2019-04-29T00:44:50.398Z,74.97
2019-04-29T00:45:27.292Z,74.33
2019-04-29T00:46:03.481Z,74.89
2019-04-29T00:46:39.749Z,74.89
2019-04-29T00:47:16.086Z,74.56
2019-04-29T00:47:52.128Z,74.56
2019-04-29T00:48:28.196Z,74.55
2019-04-29T00:49:04.727Z,74.53
2019-04-29T00:49:40.835Z,74.53
2019-04-29T00:50:16.929Z,74.47
2019-04-29T00:50:53.074Z,74.46
2019-04-29T00:51:29.348Z,74.42
2019-04-29T00:52:05.580Z,74.37
2019-04-29T00:52:41.689Z,74.32
2019-04-29T00:53:17.842Z,74.22
2019-04-29T00:53:57.504Z,74.16
2019-04-29T00:54:39.125Z,74.17
2019-04-29T00:55:18.111Z,74.17
2019-04-29T00:55:54.335Z,73.84
2019-04-29T00:56:30.512Z,73.64
2019-04-29T00:57:09.253Z,73.42
2019-04-29T00:57:45.415Z,73.20
2019-04-29T00:58:21.467Z,72.73
2019-04-29T00:58:57.595Z,72.72
2019-04-29T00:59:33.720Z,72.72
2019-04-29T01:00:11.982Z,72.54
2019-04-29T01:00:48.112Z,72.42
2019-04-29T01:01:26.065Z,72.39
2019-04-29T01:02:02.030Z,72.40
2019-04-29T01:02:38.214Z,72.38
2019-04-29T01:03:14.324Z,72.34
2019-04-29T01:03:51.151Z,72.29
2019-04-29T01:04:27.222Z,72.26
2019-04-29T01:05:03.416Z,72.18
2019-04-29T01:05:40.123Z,72.13
2019-04-29T01:06:16.295Z,72.12
2019-04-29T01:06:52.465Z,72.10
2019-04-29T01:07:28.564Z,72.08
2019-04-29T01:08:04.646Z,72.06
2019-04-29T01:08:40.841Z,72.09
2019-04-29T01:09:17.103Z,72.07
2019-04-29T01:09:53.115Z,72.08
2019-04-29T01:10:29.376Z,72.02
2019-04-29T01:11:05.435Z,71.97
2019-04-29T01:11:41.414Z,71.87
2019-04-29T01:12:17.547Z,71.69
2019-04-29T01:12:53.645Z,71.59
2019-04-29T01:13:29.729Z,71.45
2019-04-29T01:14:05.880Z,71.31
2019-04-29T01:14:42.050Z,71.05
2019-04-29T01:15:20.422Z,70.93
2019-04-29T01:15:56.555Z,70.78
2019-04-29T01:16:32.744Z,70.65
2019-04-29T01:17:08.859Z,70.50
2019-04-29T01:17:45.110Z,70.38
2019-04-29T01:18:21.179Z,70.13
2019-04-29T01:18:58.887Z,69.95
2019-04-29T01:19:35.075Z,69.57
2019-04-29T01:20:11.435Z,69.32
2019-04-29T01:20:47.750Z,69.09
2019-04-29T01:21:23.896Z,68.88
2019-04-29T01:22:00.008Z,68.89
2019-04-29T01:22:36.303Z,68.91
2019-04-29T01:23:12.408Z,68.95
2019-04-29T01:23:48.578Z,69.03
2019-04-29T01:24:24.682Z,69.09
2019-04-29T01:25:00.801Z,69.13
2019-04-29T01:25:37.044Z,69.21
2019-04-29T01:26:42.447Z,69.20
2019-04-29T01:27:22.850Z,69.19
2019-04-29T01:28:05.319Z,69.02
2019-04-29T01:28:49.340Z,69.05
2019-04-29T01:29:24.395Z,69.18
2019-04-29T01:30:00.530Z,69.27
2019-04-29T01:31:01.692Z,69.34
2019-04-29T01:31:37.935Z,69.38
2019-04-29T01:32:14.061Z,69.40
2019-04-29T01:32:50.166Z,69.45
2019-04-29T01:33:26.479Z,69.49
2019-04-29T01:34:17.680Z,69.48
2019-04-29T01:34:55.113Z,69.49
2019-04-29T01:35:31.253Z,69.56
2019-04-29T01:36:24.887Z,69.61
2019-04-29T01:37:00.978Z,69.62
2019-04-29T01:37:41.639Z,69.53
2019-04-29T01:38:17.778Z,69.48
2019-04-29T01:38:55.825Z,69.47
2019-04-29T01:39:45.354Z,69.42
2019-04-29T01:40:39.694Z,69.35
2019-04-29T01:41:18.451Z,69.21
2019-04-29T01:42:09.904Z,69.09
2019-04-29T01:42:46.196Z,68.84
2019-04-29T01:43:22.476Z,68.66
2019-04-29T01:44:08.253Z,68.52
2019-04-29T01:44:44.376Z,68.50
2019-04-29T01:45:20.552Z,68.49
2019-04-29T01:45:56.696Z,68.41
2019-04-29T01:46:32.869Z,68.35
2019-04-29T01:47:09.047Z,68.34
2019-04-29T01:47:45.160Z,68.35
2019-04-29T01:48:21.387Z,68.32
2019-04-29T01:48:57.565Z,68.39
2019-04-29T01:49:33.649Z,68.30
2019-04-29T01:50:09.821Z,68.17
2019-04-29T01:50:45.954Z,68.04
2019-04-29T01:51:22.042Z,68.02
2019-04-29T01:51:59.576Z,67.98
2019-04-29T01:52:36.740Z,67.91
2019-04-29T01:53:12.934Z,67.69
2019-04-29T01:53:49.041Z,67.46
2019-04-29T01:54:25.088Z,66.19
2019-04-29T01:55:01.231Z,65.51
2019-04-29T01:55:37.338Z,64.99
2019-04-29T01:56:13.424Z,64.86
2019-04-29T01:56:49.512Z,65.14
2019-04-29T01:57:28.392Z,65.21
2019-04-29T01:58:05.649Z,65.33
2019-04-29T01:58:41.853Z,65.44
2019-04-29T01:59:17.967Z,65.45
2019-04-29T01:59:54.009Z,65.43
2019-04-29T02:00:30.159Z,65.50
2019-04-29T02:01:06.365Z,65.57
2019-04-29T02:01:42.505Z,65.78
2019-04-29T02:02:18.776Z,65.92
2019-04-29T02:02:55.209Z,65.91
2019-04-29T02:03:31.323Z,65.87
2019-04-29T02:04:10.448Z,65.60
2019-04-29T02:04:46.645Z,65.52
2019-04-29T02:05:22.756Z,65.39
2019-04-29T02:05:59.075Z,65.20
2019-04-29T02:06:35.178Z,64.95
2019-04-29T02:07:11.185Z,64.77
2019-04-29T02:07:47.284Z,64.50
2019-04-29T02:08:24.590Z,64.17
2019-04-29T02:09:01.730Z,63.92
2019-04-29T02:09:56.679Z,63.56
2019-04-29T02:10:34.293Z,63.03
2019-04-29T02:11:10.404Z,62.64
2019-04-29T02:11:46.595Z,62.19
2019-04-29T02:12:22.536Z,61.70
2019-04-29T02:12:58.594Z,60.86
2019-04-29T02:13:34.730Z,60.00
2019-04-29T02:14:10.773Z,59.85
2019-04-29T02:14:47.004Z,59.65
2019-04-29T02:15:23.070Z,59.75
2019-04-29T02:15:59.163Z,59.55
2019-04-29T02:16:35.175Z,59.44
2019-04-29T02:17:11.332Z,59.41
2019-04-29T02:17:47.400Z,59.20
2019-04-29T02:18:23.499Z,59.24
2019-04-29T02:18:59.591Z,59.08
2019-04-29T02:19:35.686Z,59.09
2019-04-29T02:20:11.862Z,59.10
2019-04-29T02:20:50.180Z,59.18
2019-04-29T02:21:26.305Z,59.24
2019-04-29T02:22:33.199Z,59.23
2019-04-29T02:23:20.726Z,59.19
2019-04-29T02:24:27.607Z,58.87
2019-04-29T02:25:22.551Z,58.87
2019-04-29T02:25:58.556Z,58.97
2019-04-29T02:26:34.607Z,58.99
2019-04-29T02:27:10.677Z,58.97
2019-04-29T02:27:46.798Z,59.03
2019-04-29T02:28:23.043Z,59.10
2019-04-29T02:28:59.100Z,59.28
2019-04-29T02:29:35.117Z,59.38
2019-04-29T02:30:11.740Z,59.58
2019-04-29T02:30:49.575Z,59.71
2019-04-29T02:31:41.223Z,59.78
2019-04-29T02:32:17.366Z,59.80
2019-04-29T02:32:53.499Z,60.07
2019-04-29T02:33:29.873Z,60.09
2019-04-29T02:34:06.009Z,60.11
2019-04-29T02:34:42.121Z,60.11
2019-04-29T02:35:18.197Z,60.14
2019-04-29T02:35:55.782Z,60.16
2019-04-29T02:36:31.983Z,60.05
2019-04-29T02:37:09.674Z,60.09
2019-04-29T02:37:45.738Z,60.07
2019-04-29T02:38:43.522Z,60.07
2019-04-29T02:39:32.653Z,60.07
2019-04-29T02:40:15.052Z,60.27
2019-04-29T02:41:00.441Z,60.32
2019-04-29T02:41:55.535Z,60.37
2019-04-29T02:42:43.291Z,60.36
2019-04-29T02:43:22.294Z,60.34
2019-04-29T02:43:59.440Z,60.38
2019-04-29T02:44:38.334Z,60.27
2019-04-29T02:45:22.334Z,60.27
2019-04-29T02:45:59.932Z,60.36
2019-04-29T02:46:36.096Z,60.46
2019-04-29T02:47:12.184Z,60.50
2019-04-29T02:47:48.409Z,60.53
2019-04-29T02:48:29.114Z,60.56
2019-04-29T02:49:03.040Z,60.43
2019-04-29T02:49:39.085Z,60.20
2019-04-29T02:50:15.200Z,60.00
2019-04-29T02:50:51.342Z,59.95
2019-04-29T02:51:49.077Z,59.91
2019-04-29T02:52:26.076Z,59.77
2019-04-29T02:53:02.141Z,59.27
2019-04-29T02:53:38.312Z,59.04
2019-04-29T02:54:14.451Z,58.95
2019-04-29T02:54:51.514Z,58.77
2019-04-29T02:55:35.908Z,58.31
2019-04-29T02:56:11.890Z,57.88
2019-04-29T02:56:52.252Z,57.71
2019-04-29T02:57:33.781Z,57.53
2019-04-29T02:58:24.679Z,57.07
2019-04-29T02:59:05.299Z,56.67
2019-04-29T02:59:44.481Z,55.96
2019-04-29T03:00:42.748Z,55.69
2019-04-29T03:01:32.951Z,55.44
2019-04-29T03:02:24.301Z,54.98
2019-04-29T03:03:19.290Z,54.47
2019-04-29T03:04:01.926Z,54.46
2019-04-29T03:04:56.885Z,54.32
2019-04-29T03:05:40.068Z,54.12
2019-04-29T03:06:16.660Z,53.73
2019-04-29T03:06:54.278Z,53.19
2019-04-29T03:07:30.444Z,53.00
2019-04-29T03:08:06.631Z,52.94
2019-04-29T03:08:42.699Z,52.74
2019-04-29T03:09:18.804Z,51.92
2019-04-29T03:09:54.778Z,51.89
2019-04-29T03:10:30.839Z,51.57
2019-04-29T03:11:07.084Z,50.81
2019-04-29T03:11:43.306Z,50.35
2019-04-29T03:12:19.385Z,50.20
2019-04-29T03:12:57.842Z,50.02
2019-04-29T03:13:33.904Z,49.93
2019-04-29T03:14:10.692Z,50.17
2019-04-29T03:14:46.822Z,50.36
2019-04-29T03:15:32.560Z,50.64
2019-04-29T03:16:08.690Z,50.84
2019-04-29T03:16:47.693Z,50.90
2019-04-29T03:17:23.791Z,50.59
2019-04-29T03:17:59.822Z,50.36
2019-04-29T03:18:42.808Z,50.52
2019-04-29T03:19:24.242Z,50.61
2019-04-29T03:20:18.373Z,50.24
2019-04-29T03:21:22.214Z,49.95
2019-04-29T03:21:59.742Z,50.48
2019-04-29T03:22:37.598Z,50.54
2019-04-29T03:23:21.305Z,50.45
2019-04-29T03:23:57.399Z,50.53
2019-04-29T03:24:33.662Z,50.52
2019-04-29T03:25:10.761Z,50.54
2019-04-29T03:25:46.877Z,50.52
2019-04-29T03:26:23.114Z,50.58
2019-04-29T03:26:59.195Z,50.68
2019-04-29T03:27:35.320Z,50.56
2019-04-29T03:28:11.396Z,49.98
2019-04-29T03:28:47.498Z,49.65
2019-04-29T03:29:23.592Z,49.53
2019-04-29T03:29:59.771Z,49.15
2019-04-29T03:30:35.984Z,49.25
2019-04-29T03:31:12.189Z,49.25
2019-04-29T03:31:48.293Z,49.58
2019-04-29T03:32:26.701Z,50.01
2019-04-29T03:33:02.894Z,50.09
2019-04-29T03:33:39.064Z,49.98
2019-04-29T03:34:15.749Z,49.60
2019-04-29T03:34:51.862Z,49.24
2019-04-29T03:35:28.065Z,49.15
2019-04-29T03:36:04.358Z,48.89
2019-04-29T03:36:40.430Z,48.98
2019-04-29T03:37:16.675Z,49.04
2019-04-29T03:37:52.703Z,49.16
2019-04-29T03:38:28.984Z,49.29
2019-04-29T03:39:05.644Z,49.07
2019-04-29T03:39:41.740Z,48.84
2019-04-29T03:40:17.914Z,48.82
2019-04-29T03:40:54.352Z,48.83
2019-04-29T03:41:30.561Z,48.67
2019-04-29T03:42:07.544Z,48.70
2019-04-29T03:42:44.529Z,48.99
2019-04-29T03:43:21.301Z,49.17
2019-04-29T03:43:57.527Z,49.09
2019-04-29T03:44:33.776Z,48.88
2019-04-29T03:45:10.062Z,48.83
2019-04-29T03:45:46.249Z,48.88
2019-04-29T03:46:22.380Z,48.71
2019-04-29T03:46:59.526Z,48.66
2019-04-29T03:47:35.668Z,48.53
2019-04-29T03:48:11.903Z,47.73
2019-04-29T03:48:47.948Z,47.45
2019-04-29T03:49:24.074Z,47.39
2019-04-29T03:50:00.138Z,47.31
2019-04-29T03:50:36.335Z,47.34
2019-04-29T03:51:12.433Z,47.28
2019-04-29T03:51:49.317Z,47.54
2019-04-29T03:52:25.749Z,47.19
2019-04-29T03:53:01.912Z,47.14
2019-04-29T03:53:38.195Z,47.16
2019-04-29T03:54:14.607Z,47.41
2019-04-29T03:54:50.800Z,47.58
2019-04-29T03:55:38.804Z,47.66
2019-04-29T03:56:04.986Z,47.57
2019-04-29T03:56:43.963Z,47.35
2019-04-29T03:57:21.771Z,47.42
2019-04-29T03:57:59.537Z,47.38
2019-04-29T03:58:35.827Z,47.46
2019-04-29T03:59:12.145Z,47.32
2019-04-29T03:59:48.439Z,46.83
2019-04-29T04:00:24.771Z,46.75
2019-04-29T04:01:09.167Z,46.84
2019-04-29T04:02:01.181Z,46.93
2019-04-29T04:02:44.381Z,46.98
2019-04-29T04:03:39.505Z,46.91
2019-04-29T04:04:25.876Z,46.68
2019-04-29T04:05:11.503Z,46.35
2019-04-29T04:05:53.001Z,46.32
2019-04-29T04:06:43.512Z,46.73
2019-04-29T04:07:36.810Z,46.94
2019-04-29T04:08:19.142Z,46.49
2019-04-29T04:09:05.988Z,46.30
2019-04-29T04:09:37.721Z,46.03
2019-04-29T04:10:16.330Z,45.97
2019-04-29T04:10:52.703Z,46.21
2019-04-29T04:11:28.925Z,46.22
2019-04-29T04:12:05.524Z,46.53
2019-04-29T04:12:41.964Z,46.62
2019-04-29T04:13:18.133Z,46.41
2019-04-29T04:13:54.331Z,46.35
2019-04-29T04:14:30.520Z,46.57
2019-04-29T04:15:06.710Z,46.65
2019-04-29T04:15:42.954Z,46.47
2019-04-29T04:16:50.605Z,46.47
2019-04-29T04:17:50.318Z,46.49
2019-04-29T04:18:30.663Z,46.52
2019-04-29T04:19:08.251Z,46.51
2019-04-29T04:19:44.513Z,46.13
2019-04-29T04:20:21.042Z,46.19
2019-04-29T04:20:57.293Z,46.11
2019-04-29T04:21:33.441Z,45.97
2019-04-29T04:22:09.580Z,45.85
2019-04-29T04:22:49.096Z,45.75
2019-04-29T04:23:25.180Z,45.46
2019-04-29T04:24:01.307Z,45.35
2019-04-29T04:24:37.491Z,45.49
2019-04-29T04:25:14.906Z,45.66
2019-04-29T04:25:51.782Z,45.55
2019-04-29T04:26:29.284Z,45.46
2019-04-29T04:27:05.354Z,45.31
2019-04-29T04:27:41.471Z,45.50
2019-04-29T04:28:17.593Z,45.44
2019-04-29T04:28:56.766Z,44.92
2019-04-29T04:29:32.845Z,44.60
2019-04-29T04:30:09.083Z,44.28
2019-04-29T04:30:45.174Z,44.29
2019-04-29T04:31:22.746Z,44.29
2019-04-29T04:31:58.934Z,44.25
2019-04-29T04:32:35.002Z,44.16
2019-04-29T04:33:11.318Z,44.16
2019-04-29T04:33:47.501Z,44.31
2019-04-29T04:34:23.594Z,44.34
2019-04-29T04:35:01.872Z,43.66
2019-04-29T04:35:38.096Z,43.39
2019-04-29T04:36:14.223Z,43.69
2019-04-29T04:36:50.476Z,43.59
2019-04-29T04:37:26.592Z,43.65
2019-04-29T04:38:02.656Z,43.80
2019-04-29T04:38:40.296Z,43.88
2019-04-29T04:39:16.363Z,44.00
2019-04-29T04:39:52.564Z,44.26
2019-04-29T04:40:35.898Z,44.47
2019-04-29T04:41:12.048Z,44.81
2019-04-29T04:41:49.349Z,45.57
2019-04-29T04:42:29.784Z,45.53
2019-04-29T04:43:04.361Z,45.31
2019-04-29T04:43:43.037Z,45.29
2019-04-29T04:44:19.087Z,45.19
2019-04-29T04:44:55.165Z,45.16
2019-04-29T04:45:31.314Z,45.23
2019-04-29T04:46:07.490Z,44.95
2019-04-29T04:46:43.792Z,45.17
2019-04-29T04:47:20.700Z,45.43
2019-04-29T04:47:56.770Z,45.49
2019-04-29T04:48:32.883Z,45.86
2019-04-29T04:49:09.024Z,45.88
2019-04-29T04:49:45.039Z,45.68
2019-04-29T04:50:21.133Z,45.66
2019-04-29T04:50:58.398Z,45.69
2019-04-29T04:51:34.598Z,45.60
2019-04-29T04:52:10.689Z,45.35
2019-04-29T04:52:46.795Z,45.00
2019-04-29T04:53:22.895Z,44.58
2019-04-29T04:53:58.939Z,44.63
2019-04-29T04:54:35.095Z,44.70
2019-04-29T04:55:11.377Z,44.98
2019-04-29T04:55:48.303Z,45.22
2019-04-29T04:56:24.442Z,44.99
2019-04-29T04:57:00.621Z,44.94
2019-04-29T04:57:36.657Z,44.96
2019-04-29T04:58:12.698Z,45.08
2019-04-29T04:58:48.631Z,45.15
2019-04-29T04:59:24.710Z,45.25
2019-04-29T05:00:01.474Z,45.42
2019-04-29T05:00:38.016Z,45.51
2019-04-29T05:01:14.121Z,45.59
2019-04-29T05:01:50.411Z,45.50
2019-04-29T05:02:29.314Z,45.54
2019-04-29T05:03:06.898Z,45.64
2019-04-29T05:03:42.977Z,45.79
2019-04-29T05:04:19.086Z,45.82
2019-04-29T05:04:55.217Z,45.87
2019-04-29T05:05:31.622Z,46.27
2019-04-29T05:06:07.713Z,46.20
2019-04-29T05:06:43.957Z,45.87
2019-04-29T05:07:20.062Z,45.79
2019-04-29T05:07:56.183Z,45.86
2019-04-29T05:08:32.307Z,45.94
2019-04-29T05:09:08.582Z,46.06
2019-04-29T05:09:46.323Z,46.22
2019-04-29T05:10:22.487Z,46.34
2019-04-29T05:10:58.534Z,46.49
2019-04-29T05:11:34.714Z,46.49
2019-04-29T05:12:13.897Z,46.50
2019-04-29T05:12:49.856Z,46.66
2019-04-29T05:13:28.423Z,46.85
2019-04-29T05:14:03.876Z,47.02
2019-04-29T05:14:39.978Z,47.09
2019-04-29T05:15:16.308Z,47.36
2019-04-29T05:15:52.359Z,47.55
2019-04-29T05:16:28.367Z,47.91
2019-04-29T05:17:07.225Z,48.03
2019-04-29T05:17:44.786Z,48.23
2019-04-29T05:18:20.904Z,48.39
2019-04-29T05:18:57.019Z,48.48
2019-04-29T05:19:33.095Z,48.42
2019-04-29T05:20:09.231Z,48.20
2019-04-29T05:20:45.311Z,48.13
2019-04-29T05:21:21.338Z,48.13
2019-04-29T05:21:57.438Z,48.08
2019-04-29T05:22:33.574Z,48.13
2019-04-29T05:23:09.803Z,48.19
2019-04-29T05:23:45.792Z,48.18
2019-04-29T05:24:21.928Z,48.16
2019-04-29T05:24:58.064Z,48.28
2019-04-29T05:25:35.519Z,48.38
2019-04-29T05:26:12.389Z,48.39
2019-04-29T05:26:48.472Z,48.58
2019-04-29T05:27:24.622Z,48.82
2019-04-29T05:28:00.691Z,48.96
2019-04-29T05:28:37.078Z,48.99
2019-04-29T05:29:32.746Z,49.03
2019-04-29T05:30:09.030Z,49.10
2019-04-29T05:30:47.834Z,49.38
2019-04-29T05:31:23.898Z,49.86
2019-04-29T05:32:00.094Z,50.22
2019-04-29T05:32:36.330Z,50.40
2019-04-29T05:33:12.390Z,50.65
2019-04-29T05:33:48.466Z,51.13
2019-04-29T05:34:26.438Z,51.07
2019-04-29T05:35:04.743Z,51.03
2019-04-29T05:36:05.868Z,51.12
2019-04-29T05:36:48.652Z,51.29
2019-04-29T05:37:49.179Z,51.49
2019-04-29T05:38:49.817Z,51.69
2019-04-29T05:39:29.429Z,52.15
2019-04-29T05:40:05.596Z,52.46
2019-04-29T05:40:44.233Z,52.47
2019-04-29T05:41:21.198Z,52.34
2019-04-29T05:41:57.186Z,52.47
2019-04-29T05:42:33.181Z,52.65
2019-04-29T05:43:11.409Z,52.52
2019-04-29T05:43:57.123Z,52.65
2019-04-29T05:44:54.889Z,52.75
2019-04-29T05:45:36.931Z,52.64
2019-04-29T05:46:23.243Z,52.71
2019-04-29T05:47:18.309Z,52.82
2019-04-29T05:48:01.667Z,53.09
2019-04-29T05:48:37.807Z,53.23
2019-04-29T05:49:15.927Z,53.34
2019-04-29T05:50:11.978Z,53.43
2019-04-29T05:50:58.105Z,53.75
2019-04-29T05:51:49.029Z,53.94
2019-04-29T05:52:42.103Z,54.07
2019-04-29T05:53:22.165Z,54.21
2019-04-29T05:53:59.462Z,54.59
2019-04-29T05:54:36.249Z,54.93
2019-04-29T05:55:13.714Z,55.15
2019-04-29T05:55:52.654Z,55.20
2019-04-29T05:56:28.841Z,55.25
2019-04-29T05:57:04.985Z,55.31
2019-04-29T05:57:41.166Z,55.43
2019-04-29T05:58:17.162Z,55.43
2019-04-29T05:58:53.411Z,55.49
2019-04-29T05:59:29.503Z,55.64
2019-04-29T06:00:06.071Z,55.70
2019-04-29T06:00:54.310Z,55.88
2019-04-29T06:01:31.836Z,55.88
2019-04-29T06:02:08.012Z,55.77
2019-04-29T06:02:44.065Z,55.87
2019-04-29T06:03:22.214Z,56.05
2019-04-29T06:03:58.297Z,56.12
2019-04-29T06:04:34.377Z,56.33
2019-04-29T06:05:10.589Z,56.43
2019-04-29T06:05:46.716Z,56.83
2019-04-29T06:06:22.939Z,56.88
2019-04-29T06:06:59.312Z,56.89
2019-04-29T06:07:35.301Z,56.84
2019-04-29T06:08:11.478Z,56.81
2019-04-29T06:08:47.566Z,56.72
2019-04-29T06:09:23.658Z,56.62
2019-04-29T06:09:59.708Z,56.60
2019-04-29T06:10:35.799Z,56.73
2019-04-29T06:11:12.010Z,56.80
2019-04-29T06:11:49.648Z,56.68
2019-04-29T06:12:25.865Z,56.63
2019-04-29T06:13:01.957Z,56.65
2019-04-29T06:13:39.503Z,56.65
2019-04-29T06:14:15.571Z,56.74
2019-04-29T06:14:51.692Z,56.73
2019-04-29T06:15:27.750Z,56.61
2019-04-29T06:16:03.767Z,56.60
2019-04-29T06:16:39.857Z,56.62
2019-04-29T06:17:16.024Z,56.73
2019-04-29T06:17:52.105Z,56.89
2019-04-29T06:18:28.172Z,56.90
2019-04-29T06:19:06.056Z,56.49
2019-04-29T06:19:42.136Z,55.21
2019-04-29T06:20:22.616Z,55.12
2019-04-29T06:21:08.215Z,55.17
2019-04-29T06:21:35.208Z,55.31
2019-04-29T06:22:11.315Z,55.44
2019-04-29T06:22:47.377Z,55.43
2019-04-29T06:23:24.327Z,55.76
2019-04-29T06:24:04.513Z,55.67
2019-04-29T06:24:41.099Z,55.16
2019-04-29T06:25:16.187Z,54.29
2019-04-29T06:25:52.293Z,53.93
2019-04-29T06:26:28.448Z,53.42
2019-04-29T06:27:04.524Z,52.96
2019-04-29T06:27:40.571Z,52.70
2019-04-29T06:28:16.683Z,52.34
2019-04-29T06:28:52.762Z,51.90
2019-04-29T06:29:28.981Z,51.57
2019-04-29T06:30:05.334Z,51.18
2019-04-29T06:30:45.242Z,50.84
2019-04-29T06:31:19.494Z,50.38
2019-04-29T06:31:55.611Z,50.13
2019-04-29T06:32:31.737Z,50.08
2019-04-29T06:33:07.870Z,49.89
2019-04-29T06:33:43.956Z,49.16
2019-04-29T06:34:20.022Z,48.88
2019-04-29T06:34:56.038Z,48.64
2019-04-29T06:35:32.147Z,48.76
2019-04-29T06:36:08.347Z,48.79
2019-04-29T06:36:44.615Z,48.92
2019-04-29T06:37:20.626Z,48.52
2019-04-29T06:37:56.706Z,48.55
2019-04-29T06:38:32.729Z,48.34
2019-04-29T06:39:09.383Z,48.11
2019-04-29T06:39:45.452Z,48.10
2019-04-29T06:40:21.569Z,48.18
2019-04-29T06:40:57.604Z,48.34
2019-04-29T06:41:33.711Z,47.94
2019-04-29T06:42:09.786Z,47.94
2019-04-29T06:42:49.432Z,48.06
2019-04-29T06:43:28.670Z,47.96
2019-04-29T06:44:15.836Z,47.90
2019-04-29T06:44:44.480Z,48.17
2019-04-29T06:45:22.004Z,48.31
2019-04-29T06:45:58.054Z,48.46
2019-04-29T06:46:34.272Z,48.30
2019-04-29T06:47:10.531Z,48.36
2019-04-29T06:47:49.059Z,48.66
2019-04-29T06:48:25.094Z,48.66
2019-04-29T06:49:10.009Z,48.42
2019-04-29T06:49:39.015Z,48.44
2019-04-29T06:50:16.132Z,48.55
2019-04-29T06:50:52.254Z,48.58
2019-04-29T06:51:28.305Z,48.61
2019-04-29T06:52:04.302Z,48.67
2019-04-29T06:52:40.419Z,48.96
2019-04-29T06:53:21.441Z,49.09
2019-04-29T06:53:56.495Z,49.18
2019-04-29T06:54:32.495Z,49.24
2019-04-29T06:55:08.707Z,49.19
2019-04-29T06:55:45.452Z,49.19
2019-04-29T06:56:21.550Z,49.23
2019-04-29T06:56:57.754Z,49.36
2019-04-29T06:57:33.763Z,49.62
2019-04-29T06:58:09.837Z,49.80
2019-04-29T06:58:48.979Z,50.11
2019-04-29T06:59:23.685Z,50.59
2019-04-29T06:59:59.823Z,51.00
2019-04-29T07:00:35.931Z,51.28
2019-04-29T07:01:12.152Z,51.60
2019-04-29T07:01:48.280Z,51.92
2019-04-29T07:02:24.605Z,52.36
2019-04-29T07:03:00.871Z,52.74
2019-04-29T07:03:37.064Z,53.03
2019-04-29T07:04:13.056Z,53.35
2019-04-29T07:04:49.112Z,53.87
2019-04-29T07:05:26.210Z,53.96
2019-04-29T07:06:02.355Z,54.10
2019-04-29T07:06:38.526Z,54.21
2019-04-29T07:07:17.667Z,54.29
2019-04-29T07:07:53.830Z,54.32
2019-04-29T07:08:29.913Z,54.28
2019-04-29T07:09:07.348Z,54.29
2019-04-29T07:09:43.415Z,54.33
2019-04-29T07:10:26.910Z,54.44
2019-04-29T07:11:01.003Z,54.48
2019-04-29T07:11:38.449Z,54.57
2019-04-29T07:12:14.736Z,54.69
2019-04-29T07:12:50.801Z,54.83
2019-04-29T07:13:27.014Z,54.98
2019-04-29T07:14:04.732Z,55.01
2019-04-29T07:14:40.985Z,55.01
2019-04-29T07:15:17.303Z,54.97
2019-04-29T07:15:53.394Z,54.94
2019-04-29T07:16:31.928Z,54.91
2019-04-29T07:17:07.326Z,54.93
2019-04-29T07:17:43.339Z,54.92
2019-04-29T07:18:19.448Z,54.91
2019-04-29T07:18:55.568Z,54.99
2019-04-29T07:19:31.728Z,55.01
2019-04-29T07:20:08.049Z,54.89
2019-04-29T07:20:45.630Z,53.57
2019-04-29T07:21:23.675Z,53.34
2019-04-29T07:21:59.756Z,53.45
2019-04-29T07:22:35.836Z,53.52
2019-04-29T07:23:11.914Z,53.44
2019-04-29T07:23:48.004Z,52.75
2019-04-29T07:24:24.087Z,52.55
2019-04-29T07:25:00.166Z,52.28
2019-04-29T07:25:36.255Z,52.21
2019-04-29T07:26:12.374Z,51.55
2019-04-29T07:26:48.517Z,50.83
2019-04-29T07:27:24.688Z,50.06
2019-04-29T07:28:00.891Z,49.63
2019-04-29T07:28:36.999Z,49.61
2019-04-29T07:29:13.034Z,49.25
2019-04-29T07:29:48.977Z,48.95
2019-04-29T07:30:25.171Z,48.87
2019-04-29T07:31:02.994Z,48.59
2019-04-29T07:31:39.166Z,48.37
2019-04-29T07:32:15.335Z,47.84
2019-04-29T07:32:51.412Z,47.56
2019-04-29T07:33:27.510Z,47.26
2019-04-29T07:34:03.697Z,46.99
2019-04-29T07:34:39.838Z,46.43
2019-04-29T07:35:16.025Z,46.12
2019-04-29T07:35:52.113Z,46.01
2019-04-29T07:36:28.162Z,45.76
2019-04-29T07:37:04.378Z,45.90
2019-04-29T07:37:40.523Z,45.83
2019-04-29T07:38:16.637Z,45.58
2019-04-29T07:38:56.603Z,45.46
2019-04-29T07:39:31.633Z,45.83
2019-04-29T07:40:09.397Z,46.82
2019-04-29T07:40:47.978Z,47.22
2019-04-29T07:41:24.129Z,47.36
2019-04-29T07:42:03.195Z,47.59
2019-04-29T07:42:38.156Z,47.74
2019-04-29T07:43:14.384Z,47.89
2019-04-29T07:43:50.467Z,48.10
2019-04-29T07:44:42.705Z,48.40
2019-04-29T07:45:43.661Z,48.86
2019-04-29T07:46:25.908Z,49.37
2019-04-29T07:47:02.555Z,50.02
2019-04-29T07:47:40.144Z,50.54
2019-04-29T07:48:16.829Z,50.79
2019-04-29T07:49:01.487Z,50.98
2019-04-29T07:49:30.816Z,51.12
2019-04-29T07:50:07.095Z,51.20
2019-04-29T07:50:43.268Z,51.25
2019-04-29T07:51:22.224Z,51.15
2019-04-29T07:51:58.331Z,50.90
2019-04-29T07:52:34.542Z,51.01
2019-04-29T07:53:10.745Z,51.15
2019-04-29T07:53:46.882Z,51.32
2019-04-29T07:54:23.035Z,51.46
2019-04-29T07:55:00.639Z,51.61
2019-04-29T07:55:36.708Z,51.87
2019-04-29T07:56:12.838Z,52.04
2019-04-29T07:56:51.438Z,52.19
2019-04-29T07:57:27.491Z,52.54
2019-04-29T07:58:03.613Z,52.71
2019-04-29T07:58:39.738Z,52.72
2019-04-29T07:59:15.735Z,52.74
2019-04-29T07:59:51.791Z,52.72
2019-04-29T08:00:35.143Z,52.69
2019-04-29T08:01:11.174Z,52.61
2019-04-29T08:01:47.241Z,52.79
2019-04-29T08:02:23.406Z,53.11
2019-04-29T08:02:59.512Z,53.84
2019-04-29T08:03:35.701Z,54.09
2019-04-29T08:04:11.874Z,54.36
2019-04-29T08:04:47.873Z,54.67
2019-04-29T08:05:23.827Z,54.78
2019-04-29T08:06:00.023Z,54.96
2019-04-29T08:06:38.110Z,55.15
2019-04-29T08:07:14.815Z,55.19
2019-04-29T08:07:51.269Z,55.34
2019-04-29T08:08:27.465Z,55.48
2019-04-29T08:09:08.019Z,55.53
2019-04-29T08:09:44.273Z,55.64
2019-04-29T08:10:23.616Z,55.81
2019-04-29T08:10:59.579Z,56.00
2019-04-29T08:11:35.817Z,56.10
2019-04-29T08:12:12.688Z,56.14
2019-04-29T08:12:49.787Z,56.20
2019-04-29T08:13:27.351Z,56.41